Time,TemperatureF,DewpointF,PressureIn,WindDirection,WindDirectionDegrees,WindSpeedMPH,WindSpeedGustMPH,Humidity,HourlyPrecipIn,Conditions,Clouds,dailyrainin,SoftwareType,DateUTC
2013-08-21 00:05:00,82.1,77.1,30.07,SE,130,12.0,30.0,85,0.00,,,0.04,Wunderground v.1.15,2013-08-21 04:05:00,
2013-08-21 00:10:00,82.1,77.1,30.07,ESE,119,12.0,30.0,85,0.00,,,0.04,Wunderground v.1.15,2013-08-21 04:10:00,
2013-08-21 00:15:00,82.1,77.1,30.07,SSE,149,12.0,30.0,85,0.00,,,0.04,Wunderground v.1.15,2013-08-21 04:15:00,
2013-08-21 00:20:00,82.0,77.4,30.07,SE,134,10.0,10.0,86,0.00,,,0.04,Wunderground v.1.15,2013-08-21 04:20:00,
2013-08-21 00:25:00,82.0,77.0,30.07,SE,140,10.0,30.0,85,0.00,,,0.04,Wunderground v.1.15,2013-08-21 04:25:00,
2013-08-21 00:30:00,82.0,77.0,30.08,SE,127,11.0,30.0,85,0.00,,,0.04,Wunderground v.1.15,2013-08-21 04:30:00,
2013-08-21 00:40:00,82.1,76.8,30.07,ESE,111,10.0,10.0,84,0.00,,,0.04,Wunderground v.1.15,2013-08-21 04:40:00,
2013-08-21 00:45:00,82.1,76.8,30.07,SE,145,9.0,30.0,84,0.00,,,0.04,Wunderground v.1.15,2013-08-21 04:45:00,
2013-08-21 00:50:00,82.1,77.1,30.07,SE,128,8.0,30.0,85,0.00,,,0.04,Wunderground v.1.15,2013-08-21 04:50:00,
2013-08-21 01:00:00,81.9,77.3,30.07,ENE,64,8.0,8.0,86,0.00,,,0.00,Wunderground v.1.15,2013-08-21 05:00:00,
2013-08-21 01:05:00,81.3,77.7,30.07,East,92,7.0,9.0,89,0.00,,,0.00,Wunderground v.1.15,2013-08-21 05:05:00,
2013-08-21 01:15:00,80.2,77.3,30.07,East,92,8.0,30.0,91,0.00,,,0.00,Wunderground v.1.15,2013-08-21 05:15:00,
2013-08-21 01:20:00,80.0,77.5,30.07,ESE,105,8.0,8.0,92,0.00,,,0.00,Wunderground v.1.15,2013-08-21 05:20:00,
2013-08-21 01:25:00,79.9,77.4,30.07,ESE,109,9.0,11.0,92,0.00,,,0.00,Wunderground v.1.15,2013-08-21 05:25:00,
2013-08-21 01:35:00,79.0,76.5,30.06,SSE,163,8.0,30.0,92,0.13,,,0.03,Wunderground v.1.15,2013-08-21 05:35:00,
2013-08-21 01:40:00,78.8,76.6,30.06,SSE,157,4.0,4.0,93,0.06,,,0.03,Wunderground v.1.15,2013-08-21 05:40:00,
2013-08-21 01:50:00,79.3,77.4,30.06,ENE,78,3.0,30.0,94,0.00,,,0.03,Wunderground v.1.15,2013-08-21 05:50:00,
2013-08-21 01:55:00,79.4,77.5,30.06,East,92,7.0,30.0,94,0.00,,,0.03,Wunderground v.1.15,2013-08-21 05:55:00,
2013-08-21 02:05:00,79.6,77.7,30.05,ENE,76,10.0,30.0,94,0.00,,,0.03,Wunderground v.1.15,2013-08-21 06:05:00,
2013-08-21 02:10:00,79.5,77.6,30.05,East,88,10.0,30.0,94,0.00,,,0.03,Wunderground v.1.15,2013-08-21 06:10:00,
2013-08-21 02:20:00,79.5,77.6,30.05,East,86,9.0,9.0,94,0.00,,,0.03,Wunderground v.1.15,2013-08-21 06:20:00,
2013-08-21 02:25:00,79.5,77.6,30.05,East,90,8.0,30.0,94,0.00,,,0.03,Wunderground v.1.15,2013-08-21 06:25:00,
2013-08-21 02:35:00,79.6,77.7,30.05,East,84,10.0,10.0,94,0.00,,,0.03,Wunderground v.1.15,2013-08-21 06:35:00,
2013-08-21 02:45:00,79.4,77.5,30.04,East,82,11.0,30.0,94,0.00,,,0.03,Wunderground v.1.15,2013-08-21 06:45:00,
2013-08-21 02:50:00,79.4,77.5,30.04,East,80,12.0,12.0,94,0.00,,,0.03,Wunderground v.1.15,2013-08-21 06:50:00,
2013-08-21 03:00:00,79.4,77.5,30.05,East,81,12.0,12.0,94,0.00,,,0.03,Wunderground v.1.15,2013-08-21 07:00:00,
2013-08-21 03:05:00,79.3,77.7,30.05,East,98,11.0,30.0,95,0.00,,,0.03,Wunderground v.1.15,2013-08-21 07:05:00,
2013-08-21 03:15:00,79.2,77.6,30.05,East,90,9.0,30.0,95,0.00,,,0.03,Wunderground v.1.15,2013-08-21 07:15:00,
2013-08-21 03:20:00,79.4,77.8,30.05,East,82,11.0,30.0,95,0.00,,,0.03,Wunderground v.1.15,2013-08-21 07:20:00,
2013-08-21 03:25:00,79.4,77.5,30.05,ENE,76,12.0,30.0,94,0.00,,,0.03,Wunderground v.1.15,2013-08-21 07:25:00,
2013-08-21 03:35:00,79.4,77.8,30.04,East,96,10.0,30.0,95,0.00,,,0.03,Wunderground v.1.15,2013-08-21 07:35:00,
2013-08-21 03:40:00,79.2,77.3,30.05,ESE,105,10.0,10.0,94,0.00,,,0.03,Wunderground v.1.15,2013-08-21 07:40:00,
2013-08-21 03:50:00,78.5,76.0,30.05,ESE,123,11.0,30.0,92,0.00,,,0.03,Wunderground v.1.15,2013-08-21 07:50:00,
2013-08-21 03:55:00,78.4,75.2,30.05,SE,130,12.0,30.0,90,0.00,,,0.03,Wunderground v.1.15,2013-08-21 07:55:00,
2013-08-21 04:05:00,78.7,75.5,30.05,SE,127,9.0,30.0,90,0.00,,,0.03,Wunderground v.1.15,2013-08-21 08:05:00,
2013-08-21 04:10:00,78.7,75.5,30.04,SE,126,7.0,30.0,90,0.00,,,0.03,Wunderground v.1.15,2013-08-21 08:10:00,
2013-08-21 04:20:00,79.0,75.8,30.05,ESE,123,10.0,10.0,90,0.00,,,0.03,Wunderground v.1.15,2013-08-21 08:20:00,
2013-08-21 04:25:00,78.9,75.7,30.05,SE,128,9.0,30.0,90,0.00,,,0.03,Wunderground v.1.15,2013-08-21 08:25:00,
2013-08-21 04:35:00,79.0,76.1,30.04,ESE,109,7.0,30.0,91,0.00,,,0.03,Wunderground v.1.15,2013-08-21 08:35:00,
2013-08-21 04:40:00,78.9,76.0,30.04,East,98,7.0,30.0,91,0.00,,,0.03,Wunderground v.1.15,2013-08-21 08:40:00,
2013-08-21 04:50:00,79.1,76.2,30.04,East,95,8.0,8.0,91,0.00,,,0.03,Wunderground v.1.15,2013-08-21 08:50:00,
2013-08-21 04:55:00,79.4,76.5,30.04,ESE,107,9.0,13.0,91,0.00,,,0.03,Wunderground v.1.15,2013-08-21 08:55:00,
2013-08-21 05:05:00,79.5,76.6,30.04,ESE,106,11.0,30.0,91,0.00,,,0.03,Wunderground v.1.15,2013-08-21 09:05:00,
2013-08-21 05:10:00,79.3,76.4,30.04,ESE,103,9.0,30.0,91,0.00,,,0.03,Wunderground v.1.15,2013-08-21 09:10:00,
2013-08-21 05:15:00,79.2,76.3,30.04,East,96,9.0,30.0,91,0.00,,,0.03,Wunderground v.1.15,2013-08-21 09:15:00,
2013-08-21 05:20:00,79.2,76.0,30.04,ESE,105,8.0,8.0,90,0.00,,,0.03,Wunderground v.1.15,2013-08-21 09:20:00,
2013-08-21 05:30:00,79.2,76.0,30.04,ESE,114,7.0,30.0,90,0.00,,,0.03,Wunderground v.1.15,2013-08-21 09:30:00,
2013-08-21 05:35:00,79.1,75.9,30.04,East,98,7.0,30.0,90,0.00,,,0.03,Wunderground v.1.15,2013-08-21 09:35:00,
2013-08-21 05:40:00,79.1,75.9,30.04,ESE,105,7.0,7.0,90,0.00,,,0.03,Wunderground v.1.15,2013-08-21 09:40:00,
2013-08-21 05:50:00,78.9,75.7,30.05,East,94,6.0,30.0,90,0.00,,,0.03,Wunderground v.1.15,2013-08-21 09:50:00,
2013-08-21 05:55:00,78.9,75.7,30.05,East,90,6.0,30.0,90,0.00,,,0.03,Wunderground v.1.15,2013-08-21 09:55:00,
2013-08-21 06:05:00,79.1,75.9,30.05,East,96,6.0,30.0,90,0.00,,,0.03,Wunderground v.1.15,2013-08-21 10:05:00,
2013-08-21 06:10:00,79.0,76.1,30.05,East,98,6.0,30.0,91,0.00,,,0.03,Wunderground v.1.15,2013-08-21 10:10:00,
2013-08-21 06:15:00,78.9,76.0,30.06,ESE,102,7.0,30.0,91,0.00,,,0.03,Wunderground v.1.15,2013-08-21 10:15:00,
2013-08-21 06:25:00,79.0,76.1,30.06,East,100,7.0,30.0,91,0.00,,,0.03,Wunderground v.1.15,2013-08-21 10:25:00,
2013-08-21 06:30:00,79.1,76.2,30.06,East,96,7.0,30.0,91,0.00,,,0.03,Wunderground v.1.15,2013-08-21 10:30:00,
2013-08-21 06:35:00,79.1,76.2,30.06,East,101,7.0,30.0,91,0.00,,,0.03,Wunderground v.1.15,2013-08-21 10:35:00,
2013-08-21 06:40:00,79.2,76.3,30.07,East,92,6.0,30.0,91,0.00,,,0.03,Wunderground v.1.15,2013-08-21 10:40:00,
2013-08-21 06:50:00,79.8,77.6,30.07,ENE,76,7.0,30.0,93,0.00,,,0.03,Wunderground v.1.15,2013-08-21 10:50:00,
2013-08-21 06:55:00,79.7,77.5,30.07,ENE,69,9.0,30.0,93,0.00,,,0.03,Wunderground v.1.15,2013-08-21 10:55:00,
2013-08-21 07:05:00,79.4,77.5,30.07,East,90,7.0,30.0,94,0.00,,,0.03,Wunderground v.1.15,2013-08-21 11:05:00,
2013-08-21 07:10:00,79.3,77.7,30.08,East,92,7.0,30.0,95,0.00,,,0.03,Wunderground v.1.15,2013-08-21 11:10:00,
2013-08-21 07:20:00,79.2,77.6,30.08,East,88,8.0,30.0,95,0.00,,,0.03,Wunderground v.1.15,2013-08-21 11:20:00,
2013-08-21 07:25:00,79.1,77.5,30.08,East,96,8.0,30.0,95,0.00,,,0.03,Wunderground v.1.15,2013-08-21 11:25:00,
2013-08-21 07:35:00,79.2,77.6,30.08,ESE,103,8.0,30.0,95,0.00,,,0.03,Wunderground v.1.15,2013-08-21 11:35:00,
2013-08-21 07:40:00,79.2,77.6,30.09,East,94,8.0,30.0,95,0.00,,,0.03,Wunderground v.1.15,2013-08-21 11:40:00,
2013-08-21 07:50:00,79.5,77.9,30.08,East,85,10.0,30.0,95,0.00,,,0.03,Wunderground v.1.15,2013-08-21 11:50:00,
2013-08-21 07:55:00,79.7,78.1,30.09,East,84,10.0,30.0,95,0.00,,,0.03,Wunderground v.1.15,2013-08-21 11:55:00,
2013-08-21 08:00:00,79.6,78.0,30.09,East,80,10.0,30.0,95,0.00,,,0.03,Wunderground v.1.15,2013-08-21 12:00:00,
2013-08-21 08:10:00,79.5,77.9,30.09,East,85,11.0,11.0,95,0.00,,,0.03,Wunderground v.1.15,2013-08-21 12:10:00,
2013-08-21 08:15:00,79.5,77.9,30.09,East,100,11.0,30.0,95,0.00,,,0.03,Wunderground v.1.15,2013-08-21 12:15:00,
2013-08-21 08:25:00,79.5,77.9,30.10,East,86,9.0,30.0,95,0.00,,,0.03,Wunderground v.1.15,2013-08-21 12:25:00,
2013-08-21 08:30:00,79.5,77.6,30.10,East,79,10.0,10.0,94,0.00,,,0.03,Wunderground v.1.15,2013-08-21 12:30:00,
2013-08-21 08:35:00,79.2,77.3,30.10,ESE,121,10.0,15.0,94,0.00,,,0.03,Wunderground v.1.15,2013-08-21 12:35:00,
2013-08-21 08:45:00,78.8,76.6,30.10,ESE,122,12.0,30.0,93,0.00,,,0.03,Wunderground v.1.15,2013-08-21 12:45:00,
2013-08-21 08:50:00,78.8,76.6,30.10,ESE,109,8.0,8.0,93,0.00,,,0.03,Wunderground v.1.15,2013-08-21 12:50:00,
2013-08-21 09:00:00,78.7,76.5,30.10,East,92,5.0,5.0,93,0.00,,,0.03,Wunderground v.1.15,2013-08-21 13:00:00,
2013-08-21 09:05:00,78.6,76.7,30.10,ESE,118,5.0,30.0,94,0.00,,,0.03,Wunderground v.1.15,2013-08-21 13:05:00,
2013-08-21 09:10:00,78.6,76.7,30.10,ESE,117,5.0,5.0,94,0.00,,,0.03,Wunderground v.1.15,2013-08-21 13:10:00,
2013-08-21 09:20:00,78.5,76.6,30.10,SE,140,3.0,30.0,94,0.00,,,0.03,Wunderground v.1.15,2013-08-21 13:20:00,
2013-08-21 09:25:00,78.5,76.6,30.10,SE,130,3.0,30.0,94,0.00,,,0.03,Wunderground v.1.15,2013-08-21 13:25:00,
2013-08-21 09:35:00,78.9,76.7,30.10,East,95,4.0,30.0,93,0.00,,,0.03,Wunderground v.1.15,2013-08-21 13:35:00,
2013-08-21 09:40:00,79.3,76.8,30.10,East,94,1.0,1.0,92,0.00,,,0.03,Wunderground v.1.15,2013-08-21 13:40:00,
2013-08-21 09:45:00,79.5,76.6,30.10,ENE,68,1.0,6.0,91,0.00,,,0.04,Wunderground v.1.15,2013-08-21 13:45:00,
2013-08-21 09:55:00,79.8,76.3,30.11,East,79,2.0,30.0,89,0.00,,,0.04,Wunderground v.1.15,2013-08-21 13:55:00,
2013-08-21 10:00:00,80.1,75.9,30.11,East,79,0.0,30.0,87,0.00,,,0.04,Wunderground v.1.15,2013-08-21 14:00:00,
2013-08-21 10:05:00,80.3,75.4,30.11,East,86,2.0,30.0,85,0.00,,,0.04,Wunderground v.1.15,2013-08-21 14:05:00,
2013-08-21 10:10:00,80.5,75.2,30.11,East,84,6.0,30.0,84,0.00,,,0.04,Wunderground v.1.15,2013-08-21 14:10:00,
2013-08-21 10:20:00,80.8,75.2,30.12,East,90,4.0,4.0,83,0.00,,,0.04,Wunderground v.1.15,2013-08-21 14:20:00,
2013-08-21 10:25:00,80.9,75.6,30.12,ENE,74,1.0,30.0,84,0.00,,,0.04,Wunderground v.1.15,2013-08-21 14:25:00,
2013-08-21 10:35:00,80.4,77.2,30.12,ENE,67,6.0,30.0,90,0.00,,,0.04,Wunderground v.1.15,2013-08-21 14:35:00,
2013-08-21 10:40:00,80.0,77.1,30.12,ENE,62,9.0,9.0,91,0.00,,,0.04,Wunderground v.1.15,2013-08-21 14:40:00,
2013-08-21 10:50:00,79.8,76.9,30.12,ENE,66,9.0,9.0,91,0.00,,,0.04,Wunderground v.1.15,2013-08-21 14:50:00,
2013-08-21 10:55:00,80.0,77.1,30.12,ENE,67,9.0,10.0,91,0.00,,,0.04,Wunderground v.1.15,2013-08-21 14:55:00,
2013-08-21 11:00:00,80.0,76.8,30.12,ENE,69,9.0,9.0,90,0.00,,,0.04,Wunderground v.1.15,2013-08-21 15:00:00,
2013-08-21 11:10:00,80.2,76.7,30.13,East,88,8.0,8.0,89,0.00,,,0.04,Wunderground v.1.15,2013-08-21 15:10:00,
2013-08-21 11:15:00,80.5,77.0,30.13,East,86,7.0,30.0,89,0.00,,,0.04,Wunderground v.1.15,2013-08-21 15:15:00,
2013-08-21 11:25:00,80.7,75.8,30.13,ENE,62,8.0,30.0,85,0.00,,,0.04,Wunderground v.1.15,2013-08-21 15:25:00,
2013-08-21 11:30:00,81.1,76.5,30.13,NE,56,9.0,9.0,86,0.00,,,0.04,Wunderground v.1.15,2013-08-21 15:30:00,
2013-08-21 11:35:00,81.0,76.4,30.13,ENE,61,10.0,12.0,86,0.00,,,0.04,Wunderground v.1.15,2013-08-21 15:35:00,
2013-08-21 11:45:00,81.0,77.1,30.13,ENE,71,9.0,30.0,88,0.00,,,0.04,Wunderground v.1.15,2013-08-21 15:45:00,
2013-08-21 11:50:00,80.8,76.9,30.13,ENE,59,9.0,30.0,88,0.00,,,0.04,Wunderground v.1.15,2013-08-21 15:50:00,
2013-08-21 12:00:00,80.6,76.7,30.13,ENE,63,9.0,30.0,88,0.00,,,0.04,Wunderground v.1.15,2013-08-21 16:00:00,
2013-08-21 12:05:00,80.6,77.1,30.13,NE,56,10.0,30.0,89,0.00,,,0.04,Wunderground v.1.15,2013-08-21 16:05:00,
2013-08-21 12:15:00,80.9,77.0,30.13,ENE,67,8.0,30.0,88,0.00,,,0.04,Wunderground v.1.15,2013-08-21 16:15:00,
2013-08-21 12:20:00,80.9,77.4,30.13,NE,53,8.0,30.0,89,0.00,,,0.04,Wunderground v.1.15,2013-08-21 16:20:00,
2013-08-21 12:25:00,80.7,77.5,30.13,ENE,71,11.0,30.0,90,0.00,,,0.04,Wunderground v.1.15,2013-08-21 16:25:00,
2013-08-21 12:35:00,80.5,77.6,30.13,NE,56,11.0,30.0,91,0.00,,,0.04,Wunderground v.1.15,2013-08-21 16:35:00,
2013-08-21 12:40:00,80.3,77.4,30.12,NE,52,11.0,30.0,91,0.00,,,0.04,Wunderground v.1.15,2013-08-21 16:40:00,
2013-08-21 12:50:00,80.3,77.8,30.11,NE,48,11.0,30.0,92,0.00,,,0.04,Wunderground v.1.15,2013-08-21 16:50:00,
2013-08-21 12:55:00,80.5,78.0,30.12,NE,54,11.0,30.0,92,0.00,,,0.04,Wunderground v.1.15,2013-08-21 16:55:00,
2013-08-21 13:05:00,80.6,77.7,30.12,ENE,60,11.0,30.0,91,0.00,,,0.04,Wunderground v.1.15,2013-08-21 17:05:00,
2013-08-21 13:10:00,80.7,77.8,30.11,ENE,68,11.0,30.0,91,0.00,,,0.04,Wunderground v.1.15,2013-08-21 17:10:00,
2013-08-21 13:20:00,81.0,78.1,30.11,NE,36,12.0,12.0,91,0.00,,,0.04,Wunderground v.1.15,2013-08-21 17:20:00,
2013-08-21 13:25:00,81.1,77.9,30.11,NE,49,12.0,14.0,90,0.00,,,0.04,Wunderground v.1.15,2013-08-21 17:25:00,
2013-08-21 13:30:00,81.1,77.9,30.11,NE,47,13.0,30.0,90,0.00,,,0.04,Wunderground v.1.15,2013-08-21 17:30:00,
2013-08-21 13:35:00,81.2,78.0,30.10,NE,51,13.0,30.0,90,0.00,,,0.04,Wunderground v.1.15,2013-08-21 17:35:00,
2013-08-21 13:45:00,81.5,77.9,30.10,NE,52,12.0,30.0,89,0.00,,,0.04,Wunderground v.1.15,2013-08-21 17:45:00,
2013-08-21 13:50:00,81.5,77.9,30.10,NE,49,11.0,30.0,89,0.00,,,0.04,Wunderground v.1.15,2013-08-21 17:50:00,
2013-08-21 14:00:00,81.8,77.9,30.10,ENE,63,11.0,30.0,88,0.00,,,0.04,Wunderground v.1.15,2013-08-21 18:00:00,
2013-08-21 14:05:00,81.9,78.0,30.10,NE,44,11.0,30.0,88,0.00,,,0.04,Wunderground v.1.15,2013-08-21 18:05:00,
2013-08-21 14:10:00,81.9,77.6,30.10,NE,52,12.0,30.0,87,0.00,,,0.04,Wunderground v.1.15,2013-08-21 18:10:00,
2013-08-21 14:20:00,82.0,78.1,30.09,ENE,65,13.0,30.0,88,0.00,,,0.04,Wunderground v.1.15,2013-08-21 18:20:00,
2013-08-21 14:25:00,82.1,78.2,30.09,ENE,63,13.0,30.0,88,0.00,,,0.04,Wunderground v.1.15,2013-08-21 18:25:00,
2013-08-21 14:35:00,82.2,78.3,30.09,ENE,60,12.0,30.0,88,0.00,,,0.04,Wunderground v.1.15,2013-08-21 18:35:00,
2013-08-21 14:40:00,82.3,78.0,30.09,ENE,60,11.0,30.0,87,0.00,,,0.04,Wunderground v.1.15,2013-08-21 18:40:00,
2013-08-21 14:50:00,82.5,78.2,30.09,East,79,7.0,30.0,87,0.00,,,0.04,Wunderground v.1.15,2013-08-21 18:50:00,
2013-08-21 14:55:00,82.5,78.6,30.09,ENE,69,5.0,30.0,88,0.00,,,0.04,Wunderground v.1.15,2013-08-21 18:55:00,
2013-08-21 15:05:00,83.0,77.7,30.08,East,91,6.0,30.0,84,0.00,,,0.04,Wunderground v.1.15,2013-08-21 19:05:00,
2013-08-21 15:10:00,83.4,77.7,30.08,SE,137,8.0,30.0,83,0.00,,,0.04,Wunderground v.1.15,2013-08-21 19:10:00,
2013-08-21 15:20:00,83.3,79.0,30.08,SE,132,10.0,30.0,87,0.00,,,0.04,Wunderground v.1.15,2013-08-21 19:20:00,
2013-08-21 15:25:00,82.8,78.9,30.08,SE,143,11.0,30.0,88,0.00,,,0.04,Wunderground v.1.15,2013-08-21 19:25:00,
2013-08-21 15:35:00,82.7,78.8,30.07,SE,125,13.0,30.0,88,0.00,,,0.04,Wunderground v.1.15,2013-08-21 19:35:00,
2013-08-21 15:40:00,82.3,77.7,30.07,SE,126,15.0,15.0,86,0.00,,,0.04,Wunderground v.1.15,2013-08-21 19:40:00,
2013-08-21 15:50:00,82.7,77.0,30.08,SE,134,13.0,30.0,83,0.00,,,0.04,Wunderground v.1.15,2013-08-21 19:50:00,
2013-08-21 15:55:00,82.9,76.5,30.08,ESE,123,13.0,30.0,81,0.00,,,0.04,Wunderground v.1.15,2013-08-21 19:55:00,
2013-08-21 16:05:00,83.3,76.1,30.08,ESE,105,12.0,30.0,79,0.00,,,0.04,Wunderground v.1.15,2013-08-21 20:05:00,
2013-08-21 16:10:00,83.5,75.5,30.08,SE,128,12.0,12.0,77,0.00,,,0.04,Wunderground v.1.15,2013-08-21 20:10:00,
2013-08-21 16:15:00,83.8,75.4,30.07,East,96,9.0,30.0,76,0.00,,,0.04,Wunderground v.1.15,2013-08-21 20:15:00,
2013-08-21 16:25:00,84.0,74.8,30.06,ESE,111,10.0,30.0,74,0.00,,,0.04,Wunderground v.1.15,2013-08-21 20:25:00,
2013-08-21 16:30:00,84.3,73.4,30.06,ESE,118,10.0,10.0,70,0.00,,,0.04,Wunderground v.1.15,2013-08-21 20:30:00,
2013-08-21 16:40:00,84.6,75.8,30.06,SE,124,9.0,30.0,75,0.00,,,0.04,Wunderground v.1.15,2013-08-21 20:40:00,
2013-08-21 16:50:00,84.3,76.3,30.05,SE,134,8.0,30.0,77,0.00,,,0.04,Wunderground v.1.15,2013-08-21 20:50:00,
2013-08-21 16:55:00,84.2,76.2,30.04,ENE,73,7.0,30.0,77,0.00,,,0.04,Wunderground v.1.15,2013-08-21 20:55:00,
2013-08-21 17:05:00,84.5,75.3,30.04,East,90,7.0,30.0,74,0.00,,,0.04,Wunderground v.1.15,2013-08-21 21:05:00,
2013-08-21 17:10:00,84.6,75.8,30.04,ENE,59,6.0,30.0,75,0.00,,,0.04,Wunderground v.1.15,2013-08-21 21:10:00,
2013-08-21 17:20:00,85.0,78.1,30.04,SE,129,6.0,30.0,80,0.00,,,0.04,Wunderground v.1.15,2013-08-21 21:20:00,
2013-08-21 17:25:00,84.6,78.1,30.04,East,100,7.0,30.0,81,0.00,,,0.04,Wunderground v.1.15,2013-08-21 21:25:00,
2013-08-21 17:35:00,84.3,78.6,30.05,SSE,164,7.0,30.0,83,0.00,,,0.04,Wunderground v.1.15,2013-08-21 21:35:00,
2013-08-21 17:40:00,84.4,78.7,30.05,ESE,117,4.0,30.0,83,0.00,,,0.04,Wunderground v.1.15,2013-08-21 21:40:00,
2013-08-21 17:50:00,83.7,78.3,30.06,SE,124,8.0,8.0,84,0.00,,,0.04,Wunderground v.1.15,2013-08-21 21:50:00,
2013-08-21 18:00:00,84.0,79.0,30.06,SE,146,6.0,6.0,85,0.00,,,0.04,Wunderground v.1.15,2013-08-21 22:00:00,
2013-08-21 18:05:00,84.0,78.6,30.06,SE,125,7.0,8.0,84,0.00,,,0.04,Wunderground v.1.15,2013-08-21 22:05:00,
2013-08-21 18:15:00,83.8,79.2,30.06,SE,144,7.0,30.0,86,0.00,,,0.04,Wunderground v.1.15,2013-08-21 22:15:00,
2013-08-21 18:20:00,84.0,79.0,30.06,SE,146,7.0,30.0,85,0.00,,,0.04,Wunderground v.1.15,2013-08-21 22:20:00,
2013-08-21 18:25:00,84.0,78.6,30.07,SSE,162,7.0,30.0,84,0.00,,,0.04,Wunderground v.1.15,2013-08-21 22:25:00,
2013-08-21 18:35:00,83.6,78.6,30.06,ESE,113,7.0,9.0,85,0.00,,,0.04,Wunderground v.1.15,2013-08-21 22:35:00,
2013-08-21 18:40:00,83.6,79.0,30.06,SE,138,7.0,30.0,86,0.00,,,0.04,Wunderground v.1.15,2013-08-21 22:40:00,
2013-08-21 18:50:00,83.3,78.7,30.06,SE,132,7.0,7.0,86,0.00,,,0.04,Wunderground v.1.15,2013-08-21 22:50:00,
2013-08-21 18:55:00,83.2,78.6,30.06,SE,126,6.0,30.0,86,0.00,,,0.04,Wunderground v.1.15,2013-08-21 22:55:00,
2013-08-21 19:05:00,83.1,78.8,30.06,SE,144,5.0,30.0,87,0.00,,,0.04,Wunderground v.1.15,2013-08-21 23:05:00,
2013-08-21 19:15:00,83.2,78.9,30.05,ESE,121,3.0,30.0,87,0.00,,,0.04,Wunderground v.1.15,2013-08-21 23:15:00,
2013-08-21 19:20:00,83.1,78.8,30.06,ESE,122,1.0,1.0,87,0.00,,,0.04,Wunderground v.1.15,2013-08-21 23:20:00,
2013-08-21 19:25:00,82.9,78.6,30.06,SE,134,0.0,5.0,87,0.00,,,0.04,Wunderground v.1.15,2013-08-21 23:25:00,
2013-08-21 19:30:00,83.0,78.7,30.06,East,94,3.0,3.0,87,0.00,,,0.04,Wunderground v.1.15,2013-08-21 23:30:00,
2013-08-21 19:40:00,83.0,79.1,30.06,East,99,4.0,30.0,88,0.00,,,0.04,Wunderground v.1.15,2013-08-21 23:40:00,
2013-08-21 19:45:00,83.0,79.4,30.06,ESE,114,4.0,30.0,89,0.00,,,0.04,Wunderground v.1.15,2013-08-21 23:45:00,
2013-08-21 19:50:00,83.0,79.4,30.06,East,99,4.0,30.0,89,0.00,,,0.04,Wunderground v.1.15,2013-08-21 23:50:00,
2013-08-21 20:00:00,82.9,79.3,30.06,ESE,105,3.0,30.0,89,0.00,,,0.04,Wunderground v.1.15,2013-08-22 00:00:00,
2013-08-21 20:05:00,82.7,79.1,30.06,ESE,117,4.0,30.0,89,0.00,,,0.04,Wunderground v.1.15,2013-08-22 00:05:00,
2013-08-21 20:15:00,82.6,79.4,30.05,East,100,4.0,30.0,90,0.00,,,0.04,Wunderground v.1.15,2013-08-22 00:15:00,
2013-08-21 20:25:00,82.8,79.2,30.05,East,94,6.0,30.0,89,0.00,,,0.04,Wunderground v.1.15,2013-08-22 00:25:00,
2013-08-21 20:35:00,82.7,78.4,30.05,ESE,105,7.0,30.0,87,0.00,,,0.04,Wunderground v.1.15,2013-08-22 00:35:00,
2013-08-21 20:40:00,82.8,78.9,30.05,East,80,8.0,30.0,88,0.00,,,0.04,Wunderground v.1.15,2013-08-22 00:40:00,
2013-08-21 20:45:00,82.9,79.3,30.04,East,86,11.0,30.0,89,0.00,,,0.04,Wunderground v.1.15,2013-08-22 00:45:00,
2013-08-21 20:55:00,82.2,78.3,30.04,East,84,12.0,30.0,88,0.00,,,0.04,Wunderground v.1.15,2013-08-22 00:55:00,
2013-08-21 21:05:00,82.2,77.6,30.04,East,87,11.0,30.0,86,0.00,,,0.04,Wunderground v.1.15,2013-08-22 01:05:00,
2013-08-21 21:10:00,82.1,77.1,30.05,East,90,12.0,30.0,85,0.00,,,0.04,Wunderground v.1.15,2013-08-22 01:10:00,
2013-08-21 21:15:00,82.1,77.1,30.05,East,80,13.0,30.0,85,0.00,,,0.04,Wunderground v.1.15,2013-08-22 01:15:00,
2013-08-21 21:25:00,81.9,77.3,30.05,East,84,12.0,30.0,86,0.00,,,0.04,Wunderground v.1.15,2013-08-22 01:25:00,
2013-08-21 21:30:00,81.7,77.1,30.05,East,96,12.0,30.0,86,0.00,,,0.04,Wunderground v.1.15,2013-08-22 01:30:00,
2013-08-21 21:40:00,81.5,77.3,30.06,East,82,11.0,30.0,87,0.00,,,0.04,Wunderground v.1.15,2013-08-22 01:40:00,
2013-08-21 21:45:00,81.3,77.1,30.06,East,84,10.0,30.0,87,0.00,,,0.04,Wunderground v.1.15,2013-08-22 01:45:00,
2013-08-21 21:50:00,81.1,76.9,30.07,East,93,9.0,9.0,87,0.00,,,0.04,Wunderground v.1.15,2013-08-22 01:50:00,
2013-08-21 22:00:00,81.4,77.5,30.07,ENE,69,10.0,30.0,88,0.00,,,0.04,Wunderground v.1.15,2013-08-22 02:00:00,
2013-08-21 22:05:00,81.4,76.8,30.08,ENE,74,11.0,30.0,86,0.00,,,0.04,Wunderground v.1.15,2013-08-22 02:05:00,
2013-08-21 22:15:00,81.6,77.7,30.08,ENE,67,13.0,30.0,88,0.00,,,0.04,Wunderground v.1.15,2013-08-22 02:15:00,
2013-08-21 22:20:00,81.6,78.0,30.08,ENE,66,14.0,30.0,89,0.00,,,0.04,Wunderground v.1.15,2013-08-22 02:20:00,
2013-08-21 22:30:00,81.2,78.0,30.08,ENE,57,17.0,30.0,90,0.00,,,0.04,Wunderground v.1.15,2013-08-22 02:30:00,
2013-08-21 22:35:00,80.7,77.5,30.08,NE,56,19.0,30.0,90,0.00,,,0.04,Wunderground v.1.15,2013-08-22 02:35:00,
2013-08-21 22:40:00,80.3,77.1,30.08,ENE,61,19.0,30.0,90,0.00,,,0.04,Wunderground v.1.15,2013-08-22 02:40:00,
2013-08-21 22:50:00,79.9,76.0,30.08,ENE,62,20.0,30.0,88,0.00,,,0.04,Wunderground v.1.15,2013-08-22 02:50:00,
2013-08-21 22:55:00,80.1,76.2,30.08,East,86,20.0,30.0,88,0.00,,,0.04,Wunderground v.1.15,2013-08-22 02:55:00,
2013-08-21 23:05:00,80.3,76.4,30.08,ENE,76,16.0,30.0,88,0.00,,,0.04,Wunderground v.1.15,2013-08-22 03:05:00,
2013-08-21 23:10:00,80.5,76.6,30.08,ENE,74,16.0,16.0,88,0.00,,,0.04,Wunderground v.1.15,2013-08-22 03:10:00,
2013-08-21 23:20:00,80.3,76.1,30.08,East,86,18.0,18.0,87,0.00,,,0.04,Wunderground v.1.15,2013-08-22 03:20:00,
2013-08-21 23:25:00,80.4,76.5,30.08,ENE,75,17.0,30.0,88,0.00,,,0.04,Wunderground v.1.15,2013-08-22 03:25:00,
2013-08-21 23:35:00,80.6,76.7,30.09,East,80,16.0,30.0,88,0.00,,,0.04,Wunderground v.1.15,2013-08-22 03:35:00,
2013-08-21 23:40:00,80.7,76.8,30.09,ENE,72,17.0,30.0,88,0.00,,,0.04,Wunderground v.1.15,2013-08-22 03:40:00,
2013-08-21 23:50:00,80.5,76.3,30.08,East,85,19.0,19.0,87,0.00,,,0.04,Wunderground v.1.15,2013-08-22 03:50:00,
2013-08-21 23:55:00,80.3,76.4,30.08,East,88,18.0,30.0,88,0.00,,,0.04,Wunderground v.1.15,2013-08-22 03:55:00,